createdAt,value
2017-05-12T00:00:57.383Z,98704
2017-05-12T00:01:57.475Z,98699
2017-05-12T00:02:57.442Z,98704
2017-05-12T00:03:57.562Z,98701
2017-05-12T00:04:57.837Z,98703
2017-05-12T00:05:58.083Z,98702
2017-05-12T00:06:58.115Z,98700
2017-05-12T00:07:57.688Z,98703
2017-05-12T00:08:58.253Z,98705
2017-05-12T00:09:58.332Z,98703
2017-05-12T00:10:58.677Z,98704
2017-05-12T00:11:57.788Z,98708
2017-05-12T00:12:57.803Z,98708
2017-05-12T00:13:57.830Z,98707
2017-05-12T00:14:58.482Z,98707
2017-05-12T00:15:58.495Z,98707
2017-05-12T00:16:58.302Z,98704
2017-05-12T00:17:58.694Z,98699
2017-05-12T00:18:58.181Z,98707
2017-05-12T00:19:58.205Z,98711
2017-05-12T00:20:58.770Z,98704
2017-05-12T00:21:58.855Z,98706
2017-05-12T00:22:58.669Z,98707
2017-05-12T00:23:58.388Z,98701
2017-05-12T00:24:58.477Z,98701
2017-05-12T00:25:58.430Z,98700
2017-05-12T00:26:58.468Z,98704
2017-05-12T00:27:58.536Z,98705
2017-05-12T00:28:59.402Z,98704
2017-05-12T00:29:59.134Z,98703
2017-05-12T00:30:58.619Z,98704
2017-05-12T00:31:58.622Z,98703
2017-05-12T00:32:59.230Z,98704
2017-05-12T00:33:58.805Z,98705
2017-05-12T00:34:59.042Z,98703
2017-05-12T00:35:58.783Z,98698
2017-05-12T00:36:58.856Z,98705
2017-05-12T00:37:58.815Z,98709
2017-05-12T00:38:59.438Z,98708
2017-05-12T00:39:59.492Z,98705
2017-05-12T00:40:59.315Z,98708
2017-05-12T00:41:59.558Z,98708
2017-05-12T00:42:59.095Z,98712
2017-05-12T00:43:59.701Z,98708
2017-05-12T00:44:59.739Z,98710
2017-05-12T00:45:59.285Z,98710
2017-05-12T00:46:59.612Z,98704
2017-05-12T00:47:59.385Z,98718
2017-05-12T00:48:59.947Z,98709
2017-05-12T00:49:59.517Z,98713
2017-05-12T00:50:59.582Z,98714
2017-05-12T00:51:59.560Z,98712
2017-05-12T00:53:00.385Z,98719
2017-05-12T00:53:59.675Z,98711
2017-05-12T00:54:59.713Z,98715
2017-05-12T00:55:59.809Z,98716
2017-05-12T00:57:00.391Z,98719
2017-05-12T00:58:00.435Z,98719
2017-05-12T00:59:00.759Z,98725
2017-05-12T01:00:00.558Z,98722
2017-05-12T01:01:00.644Z,98724
2017-05-12T01:02:00.614Z,98723
2017-05-12T01:03:00.167Z,98727
2017-05-12T01:04:00.721Z,98721
2017-05-12T01:05:00.510Z,98726
2017-05-12T01:06:00.743Z,98730
2017-05-12T01:07:00.332Z,98727
2017-05-12T01:08:00.843Z,98725
2017-05-12T01:09:00.381Z,98727
2017-05-12T01:10:00.974Z,98728
2017-05-12T01:11:00.851Z,98729
2017-05-12T01:12:00.571Z,98730
2017-05-12T01:13:00.592Z,98730
2017-05-12T01:14:00.656Z,98727
2017-05-12T01:15:00.619Z,98727
2017-05-12T01:16:00.634Z,98719
2017-05-12T01:17:01.522Z,98728
2017-05-12T01:18:00.847Z,98728
2017-05-12T01:19:00.871Z,98731
2017-05-12T01:20:00.819Z,98730
2017-05-12T01:21:00.920Z,98730
2017-05-12T01:22:01.475Z,98729
2017-05-12T01:23:01.262Z,98726
2017-05-12T01:24:00.975Z,98720
2017-05-12T01:25:01.666Z,98734
2017-05-12T01:26:01.133Z,98726
2017-05-12T01:27:01.179Z,98726
2017-05-12T01:28:01.701Z,98727
2017-05-12T01:29:01.448Z,98725
2017-05-12T01:30:01.284Z,98720
2017-05-12T01:31:01.836Z,98727
2017-05-12T01:32:01.352Z,98725
2017-05-12T01:33:01.997Z,98725
2017-05-12T01:34:01.555Z,98725
2017-05-12T01:35:01.856Z,98726
2017-05-12T01:36:02.236Z,98725
2017-05-12T01:37:01.712Z,98719
2017-05-12T01:38:01.809Z,98725
2017-05-12T01:39:01.794Z,98724
2017-05-12T01:40:01.888Z,98727
2017-05-12T01:41:02.158Z,98728
2017-05-12T01:42:02.009Z,98722
2017-05-12T01:43:02.565Z,98729
2017-05-12T01:44:02.118Z,98725
2017-05-12T01:45:02.106Z,98718
2017-05-12T01:46:02.222Z,98724
2017-05-12T01:47:02.575Z,98722
2017-05-12T01:48:02.818Z,98721
2017-05-12T01:49:02.860Z,98714
2017-05-12T01:50:02.392Z,98721
2017-05-12T01:51:02.418Z,98719
2017-05-12T01:52:02.956Z,98723
2017-05-12T01:53:03.356Z,98724
2017-05-12T01:54:03.053Z,98720
2017-05-12T01:55:02.556Z,98720
2017-05-12T01:56:02.560Z,98715
2017-05-12T01:57:02.650Z,98723
2017-05-12T01:58:02.728Z,98721
2017-05-12T01:59:04.144Z,98724
2017-05-12T02:00:03.356Z,98724
2017-05-12T02:01:02.926Z,98724
2017-05-12T02:02:03.461Z,98722
2017-05-12T02:03:02.972Z,98720
2017-05-12T02:04:03.528Z,98717
2017-05-12T02:05:03.349Z,98715
2017-05-12T02:06:03.107Z,98720
2017-05-12T02:07:03.752Z,98723
2017-05-12T02:08:03.297Z,98719
2017-05-12T02:09:03.886Z,98713
2017-05-12T02:10:03.437Z,98721
2017-05-12T02:11:04.207Z,98720
2017-05-12T02:12:03.510Z,98718
2017-05-12T02:13:03.506Z,98714
2017-05-12T02:14:03.474Z,98722
2017-05-12T02:15:03.538Z,98719
2017-05-12T02:16:03.602Z,98722
2017-05-12T02:17:04.438Z,98720
2017-05-12T02:18:04.240Z,98718
2017-05-12T02:19:03.739Z,98719
2017-05-12T02:20:04.305Z,98710
2017-05-12T02:21:03.809Z,98722
2017-05-12T02:22:04.369Z,98719
2017-05-12T02:23:04.691Z,98716
2017-05-12T02:24:03.887Z,98717
2017-05-12T02:25:03.934Z,98716
2017-05-12T02:26:04.469Z,98715
2017-05-12T02:27:04.015Z,98718
2017-05-12T02:28:03.988Z,98717
2017-05-12T02:29:04.858Z,98707
2017-05-12T02:30:04.081Z,98718
2017-05-12T02:31:04.112Z,98717
2017-05-12T02:32:04.720Z,98719
2017-05-12T02:33:04.765Z,98716
2017-05-12T02:34:04.340Z,98716
2017-05-12T02:35:05.235Z,98715
2017-05-12T02:36:04.932Z,98715
2017-05-12T02:37:04.413Z,98717
2017-05-12T02:38:04.932Z,98720
2017-05-12T02:39:04.969Z,98717
2017-05-12T02:40:04.553Z,98715
2017-05-12T02:41:04.800Z,98716
2017-05-12T02:42:05.163Z,98712
2017-05-12T02:43:05.229Z,98714
2017-05-12T02:44:04.685Z,98715
2017-05-12T02:45:04.799Z,98714
2017-05-12T02:46:05.396Z,98709
2017-05-12T02:47:05.228Z,98717
2017-05-12T02:48:04.938Z,98717
2017-05-12T02:49:04.962Z,98713
2017-05-12T02:50:05.544Z,98714
2017-05-12T02:51:05.036Z,98714
2017-05-12T02:52:05.597Z,98713
2017-05-12T02:53:05.436Z,98714
2017-05-12T02:54:05.660Z,98716
2017-05-12T02:55:05.190Z,98716
2017-05-12T02:56:05.830Z,98712
2017-05-12T02:57:05.844Z,98713
2017-05-12T02:58:05.891Z,98714
2017-05-12T02:59:05.743Z,98713
2017-05-12T03:00:05.492Z,98712
2017-05-12T03:01:05.508Z,98713
2017-05-12T03:02:06.059Z,98709
2017-05-12T03:03:05.578Z,98714
2017-05-12T03:04:06.120Z,98712
2017-05-12T03:05:05.949Z,98707
2017-05-12T03:06:06.191Z,98708
2017-05-12T03:07:06.238Z,98708
2017-05-12T03:08:06.266Z,98709
2017-05-12T03:09:06.351Z,98701
2017-05-12T03:10:06.397Z,98702
2017-05-12T03:11:06.733Z,98700
2017-05-12T03:12:06.022Z,98701
2017-05-12T03:13:06.523Z,98708
2017-05-12T03:14:06.032Z,98706
2017-05-12T03:15:06.077Z,98708
2017-05-12T03:16:06.765Z,98710
2017-05-12T03:17:07.021Z,98701
2017-05-12T03:18:06.296Z,98707
2017-05-12T03:19:06.836Z,98706
2017-05-12T03:20:06.892Z,98705
2017-05-12T03:21:06.944Z,98706
2017-05-12T03:22:06.364Z,98707
2017-05-12T03:23:06.650Z,98706
2017-05-12T03:24:06.444Z,98707
2017-05-12T03:25:06.455Z,98709
2017-05-12T03:26:06.531Z,98710
2017-05-12T03:27:06.630Z,98705
2017-05-12T03:28:07.129Z,98708
2017-05-12T03:29:07.567Z,98706
2017-05-12T03:30:07.273Z,98709
2017-05-12T03:31:06.807Z,98709
2017-05-12T03:32:06.815Z,98710
2017-05-12T03:33:07.431Z,98709
2017-05-12T03:34:07.457Z,98714
2017-05-12T03:35:07.306Z,98704
2017-05-12T03:36:07.108Z,98713
2017-05-12T03:37:07.071Z,98712
2017-05-12T03:38:07.083Z,98713
2017-05-12T03:39:07.190Z,98713
2017-05-12T03:40:07.229Z,98707
2017-05-12T03:41:07.569Z,98713
2017-05-12T03:42:07.321Z,98716
2017-05-12T03:43:07.395Z,98719
2017-05-12T03:44:07.408Z,98722
2017-05-12T03:45:07.462Z,98722
2017-05-12T03:46:07.502Z,98723
2017-05-12T03:47:07.838Z,98724
2017-05-12T03:48:07.594Z,98725
2017-05-12T03:49:07.637Z,98725
2017-05-12T03:50:08.216Z,98722
2017-05-12T03:51:08.309Z,98724
2017-05-12T03:52:08.393Z,98724
2017-05-12T03:53:08.761Z,98723
2017-05-12T03:54:08.551Z,98723
2017-05-12T03:55:08.533Z,98725
2017-05-12T03:56:08.567Z,98726
2017-05-12T03:57:08.641Z,98726
2017-05-12T03:58:08.206Z,98727
2017-05-12T03:59:09.065Z,98729
2017-05-12T04:00:08.793Z,98727
2017-05-12T04:01:08.885Z,98729
2017-05-12T04:02:08.413Z,98728
2017-05-12T04:03:08.535Z,98725
2017-05-12T04:04:09.091Z,98730
2017-05-12T04:05:09.336Z,98733
2017-05-12T04:06:09.124Z,98733
2017-05-12T04:07:09.108Z,98732
2017-05-12T04:08:08.600Z,98727
2017-05-12T04:09:08.637Z,98738
2017-05-12T04:10:08.735Z,98740
2017-05-12T04:11:09.063Z,98739
2017-05-12T04:12:09.382Z,98741
2017-05-12T04:13:08.871Z,98743
2017-05-12T04:14:08.982Z,98743
2017-05-12T04:15:09.611Z,98746
2017-05-12T04:16:09.123Z,98741
2017-05-12T04:17:10.071Z,98738
2017-05-12T04:18:09.862Z,98747
2017-05-12T04:19:09.419Z,98745
2017-05-12T04:20:09.930Z,98746
2017-05-12T04:21:09.491Z,98751
2017-05-12T04:22:09.486Z,98750
2017-05-12T04:23:10.328Z,98752
2017-05-12T04:24:10.142Z,98750
2017-05-12T04:25:10.102Z,98745
2017-05-12T04:26:10.106Z,98754
2017-05-12T04:27:09.624Z,98755
2017-05-12T04:28:09.584Z,98756
2017-05-12T04:29:10.505Z,98745
2017-05-12T04:30:09.744Z,98759
2017-05-12T04:31:10.271Z,98759
2017-05-12T04:32:09.820Z,98758
2017-05-12T04:33:10.360Z,98755
2017-05-12T04:34:09.895Z,98762
2017-05-12T04:35:10.292Z,98765
2017-05-12T04:36:10.060Z,98766
2017-05-12T04:37:10.127Z,98762
2017-05-12T04:38:10.694Z,98767
2017-05-12T04:39:10.748Z,98761
2017-05-12T04:40:10.795Z,98768
2017-05-12T04:41:11.074Z,98773
2017-05-12T04:42:10.330Z,98771
2017-05-12T04:43:10.363Z,98774
2017-05-12T04:44:10.389Z,98775
2017-05-12T04:45:10.476Z,98777
2017-05-12T04:46:10.521Z,98774
2017-05-12T04:47:10.886Z,98776
2017-05-12T04:48:10.616Z,98777
2017-05-12T04:49:11.186Z,98769
2017-05-12T04:50:11.187Z,98781
2017-05-12T04:51:11.280Z,98781
2017-05-12T04:52:11.268Z,98783
2017-05-12T04:53:11.667Z,98780
2017-05-12T04:54:10.820Z,98779
2017-05-12T04:55:10.881Z,98782
2017-05-12T04:56:11.435Z,98783
2017-05-12T04:57:11.413Z,98780
2017-05-12T04:58:11.474Z,98781
2017-05-12T04:59:11.314Z,98777
2017-05-12T05:00:11.636Z,98778
2017-05-12T05:01:11.700Z,98783
2017-05-12T05:02:11.761Z,98782
2017-05-12T05:03:11.849Z,98786
2017-05-12T05:04:11.848Z,98785
2017-05-12T05:05:11.643Z,98781
2017-05-12T05:06:11.890Z,98779
2017-05-12T05:07:11.958Z,98790
2017-05-12T05:08:12.068Z,98789
2017-05-12T05:09:12.162Z,98795
2017-05-12T05:10:12.157Z,98797
2017-05-12T05:11:12.076Z,98795
2017-05-12T05:12:11.713Z,98797
2017-05-12T05:13:12.322Z,98799
2017-05-12T05:14:11.821Z,98803
2017-05-12T05:15:11.872Z,98801
2017-05-12T05:16:12.461Z,98801
2017-05-12T05:17:12.285Z,98801
2017-05-12T05:18:12.616Z,98792
2017-05-12T05:19:12.667Z,98802
2017-05-12T05:20:12.164Z,98796
2017-05-12T05:21:12.232Z,98797
2017-05-12T05:22:12.876Z,98797
2017-05-12T05:23:13.269Z,98798
2017-05-12T05:24:12.427Z,98798
2017-05-12T05:25:12.421Z,98798
2017-05-12T05:26:13.040Z,98798
2017-05-12T05:27:13.092Z,98801
2017-05-12T05:28:13.114Z,98802
2017-05-12T05:29:12.885Z,98805
2017-05-12T05:30:13.163Z,98807
2017-05-12T05:31:12.744Z,98812
2017-05-12T05:32:13.352Z,98811
2017-05-12T05:33:13.381Z,98801
2017-05-12T05:34:13.441Z,98813
2017-05-12T05:35:13.695Z,98805
2017-05-12T05:36:13.500Z,98808
2017-05-12T05:37:13.543Z,98813
2017-05-12T05:38:13.012Z,98812
2017-05-12T05:39:13.632Z,98813
2017-05-12T05:40:13.661Z,98816
2017-05-12T05:41:13.385Z,98818
2017-05-12T05:42:13.207Z,98819
2017-05-12T05:43:13.315Z,98822
2017-05-12T05:44:13.818Z,98821
2017-05-12T05:45:13.274Z,98822
2017-05-12T05:46:13.408Z,98827
2017-05-12T05:47:14.262Z,98823
2017-05-12T05:48:14.066Z,98822
2017-05-12T05:49:13.606Z,98826
2017-05-12T05:50:13.594Z,98828
2017-05-12T05:51:14.836Z,98822
2017-05-12T05:52:13.794Z,98820
2017-05-12T05:53:14.783Z,98824
2017-05-12T05:54:15.133Z,98824
2017-05-12T05:55:14.481Z,98833
2017-05-12T05:56:14.548Z,98835
2017-05-12T05:57:13.999Z,98836
2017-05-12T05:58:14.691Z,98830
2017-05-12T05:59:14.690Z,98828
2017-05-12T06:00:14.764Z,98835
2017-05-12T06:01:14.268Z,98833
2017-05-12T06:02:14.766Z,98831
2017-05-12T06:03:14.322Z,98838
2017-05-12T06:04:14.406Z,98835
2017-05-12T06:05:15.051Z,98836
2017-05-12T06:06:14.621Z,98839
2017-05-12T06:07:15.271Z,98842
2017-05-12T06:08:14.714Z,98833
2017-05-12T06:09:14.750Z,98838
2017-05-12T06:10:15.384Z,98841
2017-05-12T06:11:15.410Z,98840
2017-05-12T06:12:15.927Z,98845
2017-05-12T06:13:15.010Z,98845
2017-05-12T06:14:15.016Z,98842
2017-05-12T06:15:15.587Z,98841
2017-05-12T06:16:15.407Z,98841
2017-05-12T06:17:15.705Z,98845
2017-05-12T06:18:15.200Z,98835
2017-05-12T06:19:15.774Z,98846
2017-05-12T06:20:15.782Z,98849
2017-05-12T06:21:15.842Z,98843
2017-05-12T06:22:15.880Z,98849
2017-05-12T06:23:15.396Z,98850
2017-05-12T06:24:15.437Z,98850
2017-05-12T06:25:15.496Z,98849
2017-05-12T06:26:16.093Z,98850
2017-05-12T06:27:15.631Z,98855
2017-05-12T06:28:16.225Z,98855
2017-05-12T06:29:15.720Z,98853
2017-05-12T06:30:16.305Z,98858
2017-05-12T06:31:16.329Z,98853
2017-05-12T06:32:17.624Z,98857
2017-05-12T06:33:16.801Z,98852
2017-05-12T06:34:16.440Z,98856
2017-05-12T06:35:16.532Z,98855
2017-05-12T06:36:17.264Z,98856
2017-05-12T06:37:17.348Z,98847
2017-05-12T06:38:16.964Z,98863
2017-05-12T06:39:16.770Z,98860
2017-05-12T06:40:16.767Z,98856
2017-05-12T06:41:16.811Z,98864
2017-05-12T06:42:16.893Z,98862
2017-05-12T06:43:16.930Z,98866
2017-05-12T06:44:16.951Z,98862
2017-05-12T06:45:16.390Z,98867
2017-05-12T06:46:16.492Z,98865
2017-05-12T06:47:17.057Z,98871
2017-05-12T06:48:17.137Z,98865
2017-05-12T06:49:17.374Z,98871
2017-05-12T06:50:16.711Z,98870
2017-05-12T06:51:17.293Z,98873
2017-05-12T06:52:17.358Z,98869
2017-05-12T06:53:16.865Z,98874
2017-05-12T06:54:16.859Z,98880
2017-05-12T06:55:16.963Z,98879
2017-05-12T06:56:17.637Z,98869
2017-05-12T06:57:17.088Z,98878
2017-05-12T06:58:17.140Z,98878
2017-05-12T06:59:17.807Z,98876
2017-05-12T07:00:17.517Z,98874
2017-05-12T07:01:17.762Z,98879
2017-05-12T07:02:18.481Z,98882
2017-05-12T07:03:17.840Z,98884
2017-05-12T07:04:17.339Z,98881
2017-05-12T07:05:17.907Z,98885
2017-05-12T07:06:17.424Z,98889
2017-05-12T07:07:18.071Z,98885
2017-05-12T07:08:18.130Z,98890
2017-05-12T07:09:17.536Z,98891
2017-05-12T07:10:19.420Z,98895
2017-05-12T07:11:17.735Z,98892
2017-05-12T07:12:18.327Z,98898
2017-05-12T07:13:17.807Z,98895
2017-05-12T07:14:18.402Z,98893
2017-05-12T07:15:18.521Z,98894
2017-05-12T07:16:17.961Z,98904
2017-05-12T07:17:18.556Z,98898
2017-05-12T07:18:18.080Z,98898
2017-05-12T07:19:18.622Z,98903
2017-05-12T07:20:18.082Z,98900
2017-05-12T07:21:18.224Z,98903
2017-05-12T07:22:18.753Z,98904
2017-05-12T07:23:18.752Z,98907
2017-05-12T07:24:18.878Z,98901
2017-05-12T07:25:19.573Z,98909
2017-05-12T07:26:18.370Z,98904
2017-05-12T07:27:18.433Z,98900
2017-05-12T07:28:19.600Z,98896
2017-05-12T07:29:18.502Z,98904
2017-05-12T07:30:18.629Z,98897
2017-05-12T07:31:20.562Z,98905
2017-05-12T07:32:18.716Z,98906
2017-05-12T07:33:19.006Z,98907
2017-05-12T07:34:19.284Z,98899
2017-05-12T07:35:20.786Z,98897
2017-05-12T07:36:19.510Z,98904
2017-05-12T07:37:19.448Z,98909
2017-05-12T07:38:19.651Z,98905
2017-05-12T07:39:19.020Z,98911
2017-05-12T07:40:19.593Z,98913
2017-05-12T07:41:19.690Z,98914
2017-05-12T07:42:19.747Z,98915
2017-05-12T07:43:19.875Z,98919
2017-05-12T07:44:19.863Z,98918
2017-05-12T07:45:21.181Z,98914
2017-05-12T07:46:20.509Z,98906
2017-05-12T07:47:19.936Z,98916
2017-05-12T07:48:20.988Z,98916
2017-05-12T07:49:20.566Z,98916
2017-05-12T07:50:19.540Z,98919
2017-05-12T07:51:20.311Z,98921
2017-05-12T07:52:20.209Z,98921
2017-05-12T07:53:19.721Z,98916
2017-05-12T07:54:20.345Z,98919
2017-05-12T07:55:20.648Z,98916
2017-05-12T07:56:21.032Z,98922
2017-05-12T07:57:20.606Z,98923
2017-05-12T07:58:21.881Z,98939
2017-05-12T07:59:21.721Z,98923
2017-05-12T08:00:21.288Z,98928
2017-05-12T08:01:20.744Z,98927
2017-05-12T08:02:21.517Z,98924
2017-05-12T08:03:20.939Z,98927
2017-05-12T08:04:20.938Z,98926
2017-05-12T08:05:20.408Z,98924
2017-05-12T08:06:21.029Z,98923
2017-05-12T08:07:21.594Z,98928
2017-05-12T08:08:21.195Z,98928
2017-05-12T08:09:21.911Z,98923
2017-05-12T08:10:21.796Z,98924
2017-05-12T08:11:21.990Z,98940
2017-05-12T08:12:20.728Z,98935
2017-05-12T08:13:21.904Z,98923
2017-05-12T08:14:22.647Z,98937
2017-05-12T08:15:20.860Z,98920
2017-05-12T08:16:20.825Z,98927
2017-05-12T08:17:21.161Z,98936
2017-05-12T08:18:22.214Z,98933
2017-05-12T08:19:21.533Z,98943
2017-05-12T08:20:21.070Z,98934
2017-05-12T08:21:21.661Z,98940
2017-05-12T08:22:22.302Z,98933
2017-05-12T08:23:21.749Z,98932
2017-05-12T08:24:23.015Z,98936
2017-05-12T08:25:24.467Z,98943
2017-05-12T08:26:22.026Z,98933
2017-05-12T08:27:21.984Z,98936
2017-05-12T08:28:21.464Z,98941
2017-05-12T08:29:23.348Z,98932
2017-05-12T08:30:21.523Z,98934
2017-05-12T08:31:21.607Z,98939
2017-05-12T08:32:21.654Z,98937
2017-05-12T08:33:22.825Z,98940
2017-05-12T08:34:22.581Z,98947
2017-05-12T08:35:23.070Z,98949
2017-05-12T08:36:21.947Z,98936
2017-05-12T08:37:21.931Z,98935
2017-05-12T08:38:21.966Z,98935
2017-05-12T08:39:24.170Z,98940
2017-05-12T08:40:23.331Z,98943
2017-05-12T08:41:22.705Z,98954
2017-05-12T08:42:22.766Z,98949
2017-05-12T08:43:23.378Z,98946
2017-05-12T08:44:23.405Z,98954
2017-05-12T08:45:23.599Z,98959
2017-05-12T08:46:23.026Z,98959
2017-05-12T08:47:22.491Z,98958
2017-05-12T08:48:23.222Z,98962
2017-05-12T08:49:23.943Z,98958
2017-05-12T08:50:22.549Z,98959
2017-05-12T08:51:25.482Z,98960
2017-05-12T08:52:24.532Z,98956
2017-05-12T08:53:22.788Z,98951
2017-05-12T08:54:24.027Z,98953
2017-05-12T08:55:23.798Z,98957
2017-05-12T08:56:23.405Z,98957
2017-05-12T08:57:22.953Z,98951
2017-05-12T08:58:23.566Z,98955
2017-05-12T08:59:23.679Z,98946
2017-05-12T09:00:24.542Z,98955
2017-05-12T09:01:23.141Z,98956
2017-05-12T09:02:23.698Z,98960
2017-05-12T09:03:24.947Z,98957
2017-05-12T09:04:23.185Z,98959
2017-05-12T09:05:23.892Z,98959
2017-05-12T09:06:25.675Z,98946
2017-05-12T09:07:24.601Z,98950
2017-05-12T09:08:23.484Z,98950
2017-05-12T09:09:25.989Z,98958
2017-05-12T09:10:24.331Z,98954
2017-05-12T09:11:24.282Z,98958
2017-05-12T09:12:24.172Z,98958
2017-05-12T09:13:25.009Z,98958
2017-05-12T09:14:24.925Z,98946
2017-05-12T09:15:24.228Z,98955
2017-05-12T09:16:24.832Z,98961
2017-05-12T09:17:24.323Z,98958
2017-05-12T09:18:25.054Z,98949
2017-05-12T09:19:24.361Z,98949
2017-05-12T09:20:24.386Z,98948
2017-05-12T09:21:25.734Z,98953
2017-05-12T09:22:23.976Z,98952
2017-05-12T09:23:25.117Z,98951
2017-05-12T09:24:24.093Z,98953
2017-05-12T09:25:24.773Z,98952
2017-05-12T09:26:24.393Z,98952
2017-05-12T09:27:24.184Z,98956
2017-05-12T09:28:24.768Z,98947
2017-05-12T09:29:25.027Z,98958
2017-05-12T09:30:24.958Z,98963
2017-05-12T09:31:24.428Z,98957
2017-05-12T09:32:25.044Z,98959
2017-05-12T09:33:25.705Z,98956
2017-05-12T09:34:25.853Z,98954
2017-05-12T09:35:25.333Z,98947
2017-05-12T09:36:25.436Z,98954
2017-05-12T09:37:26.090Z,98953
2017-05-12T09:38:27.622Z,98955
2017-05-12T09:39:26.009Z,98952
2017-05-12T09:40:25.512Z,98954
2017-05-12T09:41:24.972Z,98957
2017-05-12T09:42:26.846Z,98956
2017-05-12T09:43:26.147Z,98957
2017-05-12T09:44:25.091Z,98950
2017-05-12T09:45:25.635Z,98956
2017-05-12T09:46:25.930Z,98957
2017-05-12T09:47:25.860Z,98957
2017-05-12T09:48:26.398Z,98957
2017-05-12T09:49:25.937Z,98956
2017-05-12T09:50:25.376Z,98962
2017-05-12T09:51:25.949Z,98957
2017-05-12T09:52:25.995Z,98954
2017-05-12T09:53:26.132Z,98966
2017-05-12T09:54:26.751Z,98959
2017-05-12T09:55:26.306Z,98965
2017-05-12T09:56:26.268Z,98965
2017-05-12T09:57:27.020Z,98959
2017-05-12T09:58:28.621Z,98964
2017-05-12T09:59:25.919Z,98962
2017-05-12T10:00:27.247Z,98963
2017-05-12T10:01:26.551Z,98965
2017-05-12T10:02:28.010Z,98969
2017-05-12T10:03:28.007Z,98969
2017-05-12T10:04:27.146Z,98967
2017-05-12T10:05:27.411Z,98963
2017-05-12T10:06:27.827Z,98966
2017-05-12T10:07:26.288Z,98957
2017-05-12T10:08:27.624Z,98965
2017-05-12T10:09:26.408Z,98967
2017-05-12T10:10:26.533Z,98969
2017-05-12T10:11:27.198Z,98958
2017-05-12T10:12:28.930Z,98975
2017-05-12T10:13:27.829Z,98967
2017-05-12T10:14:27.178Z,98967
2017-05-12T10:15:27.757Z,98960
2017-05-12T10:16:33.335Z,98956
2017-05-12T10:17:26.855Z,98962
2017-05-12T10:18:28.855Z,98962
2017-05-12T10:19:28.156Z,98971
2017-05-12T10:20:26.919Z,98972
2017-05-12T10:21:29.397Z,98973
2017-05-12T10:22:28.218Z,98972
2017-05-12T10:23:27.186Z,98965
2017-05-12T10:24:28.439Z,98967
2017-05-12T10:25:27.186Z,98969
2017-05-12T10:26:28.901Z,98967
2017-05-12T10:27:27.804Z,98963
2017-05-12T10:28:28.819Z,98962
2017-05-12T10:29:27.938Z,98961
2017-05-12T10:30:30.073Z,98976
2017-05-12T10:31:29.229Z,98976
2017-05-12T10:32:28.119Z,98971
2017-05-12T10:33:28.092Z,98975
2017-05-12T10:34:29.841Z,98975
2017-05-12T10:35:29.526Z,98969
2017-05-12T10:36:29.790Z,98973
2017-05-12T10:37:28.793Z,98972
2017-05-12T10:38:28.326Z,98973
2017-05-12T10:39:28.172Z,98973
2017-05-12T10:40:29.861Z,98962
2017-05-12T10:41:28.472Z,98972
2017-05-12T10:42:28.518Z,98965
2017-05-12T10:43:28.079Z,98964
2017-05-12T10:44:32.762Z,98963
2017-05-12T10:45:30.008Z,98965
2017-05-12T10:46:28.213Z,98965
2017-05-12T10:47:29.460Z,98955
2017-05-12T10:48:28.351Z,98961
2017-05-12T10:49:28.376Z,98954
2017-05-12T10:50:30.318Z,98963
2017-05-12T10:51:29.017Z,98963
2017-05-12T10:52:30.241Z,98963
2017-05-12T10:53:29.681Z,98964
2017-05-12T10:54:29.153Z,98963
2017-05-12T10:55:28.698Z,98963
2017-05-12T10:56:30.137Z,98963
2017-05-12T10:57:29.966Z,98964
2017-05-12T10:58:29.292Z,98964
2017-05-12T10:59:30.223Z,98970
2017-05-12T11:00:29.450Z,98956
2017-05-12T11:01:28.941Z,98960
2017-05-12T11:02:29.521Z,98954
2017-05-12T11:03:29.025Z,98960
2017-05-12T11:04:29.219Z,98961
2017-05-12T11:05:29.222Z,98948
2017-05-12T11:06:29.288Z,98956
2017-05-12T11:07:29.267Z,98956
2017-05-12T11:08:29.349Z,98956
2017-05-12T11:09:29.901Z,98954
2017-05-12T11:10:30.624Z,98955
2017-05-12T11:11:30.683Z,98952
2017-05-12T11:12:29.416Z,98951
2017-05-12T11:13:30.053Z,98954
2017-05-12T11:14:30.130Z,98943
2017-05-12T11:15:30.894Z,98948
2017-05-12T11:16:30.218Z,98952
2017-05-12T11:17:29.692Z,98946
2017-05-12T11:18:30.904Z,98953
2017-05-12T11:19:30.549Z,98955
2017-05-12T11:20:30.389Z,98953
2017-05-12T11:21:29.872Z,98953
2017-05-12T11:22:31.067Z,98955
2017-05-12T11:23:30.605Z,98956
2017-05-12T11:24:29.962Z,98958
2017-05-12T11:25:30.012Z,98961
2017-05-12T11:26:30.039Z,98960
2017-05-12T11:27:30.590Z,98955
2017-05-12T11:28:30.621Z,98954
2017-05-12T11:29:31.846Z,98950
2017-05-12T11:30:30.688Z,98951
2017-05-12T11:31:30.653Z,98951
2017-05-12T11:32:30.165Z,98947
2017-05-12T11:33:30.295Z,98942
2017-05-12T11:34:30.404Z,98949
2017-05-12T11:35:31.009Z,98953
2017-05-12T11:36:30.518Z,98959
2017-05-12T11:37:30.484Z,98954
2017-05-12T11:38:31.262Z,98954
2017-05-12T11:39:30.576Z,98963
2017-05-12T11:40:30.543Z,98959
2017-05-12T11:41:30.842Z,98952
2017-05-12T11:42:31.138Z,98960
2017-05-12T11:43:30.683Z,98955
2017-05-12T11:44:31.350Z,98966
2017-05-12T11:45:30.876Z,98958
2017-05-12T11:46:30.851Z,98963
2017-05-12T11:47:30.882Z,98955
2017-05-12T11:48:31.602Z,98964
2017-05-12T11:49:31.049Z,98977
2017-05-12T11:50:31.592Z,98977
2017-05-12T11:51:31.065Z,98980
2017-05-12T11:52:31.604Z,98980
2017-05-12T11:53:31.628Z,98981
2017-05-12T11:54:31.738Z,98974
2017-05-12T11:55:31.663Z,98981
2017-05-12T11:56:31.816Z,98987
2017-05-12T11:57:32.306Z,99000
2017-05-12T11:58:31.885Z,98988
2017-05-12T11:59:31.373Z,99006
2017-05-12T12:00:31.899Z,99003
2017-05-12T12:01:31.942Z,98999
2017-05-12T12:02:32.018Z,99005
2017-05-12T12:03:31.823Z,99005
2017-05-12T12:04:32.258Z,99006
2017-05-12T12:05:31.740Z,99010
2017-05-12T12:06:32.379Z,99010
2017-05-12T12:07:32.394Z,99015
2017-05-12T12:08:32.533Z,99018
2017-05-12T12:09:33.108Z,99019
2017-05-12T12:10:35.195Z,99032
2017-05-12T12:11:31.956Z,99019
2017-05-12T12:12:32.665Z,99024
2017-05-12T12:13:32.722Z,99019
2017-05-12T12:14:34.070Z,99022
2017-05-12T12:15:32.078Z,99027
2017-05-12T12:16:32.694Z,99038
2017-05-12T12:17:32.306Z,99024
2017-05-12T12:18:34.086Z,99019
2017-05-12T12:19:33.759Z,99015
2017-05-12T12:20:32.496Z,99014
2017-05-12T12:21:32.563Z,99016
2017-05-12T12:22:34.484Z,99017
2017-05-12T12:23:33.406Z,99014
2017-05-12T12:24:33.290Z,99013
2017-05-12T12:25:33.003Z,99014
2017-05-12T12:26:34.673Z,99012
2017-05-12T12:27:33.816Z,99015
2017-05-12T12:28:33.996Z,99010
2017-05-12T12:29:33.572Z,99014
2017-05-12T12:30:34.055Z,99010
2017-05-12T12:31:34.999Z,99013
2017-05-12T12:32:35.405Z,99014
2017-05-12T12:33:35.101Z,99010
2017-05-12T12:34:34.790Z,99020
2017-05-12T12:35:33.832Z,99017
2017-05-12T12:36:34.974Z,99018
2017-05-12T12:37:33.962Z,99018
2017-05-12T12:38:34.932Z,99016
2017-05-12T12:39:37.168Z,99011
2017-05-12T12:40:36.103Z,99019
2017-05-12T12:41:34.121Z,99017
2017-05-12T12:42:33.613Z,99012
2017-05-12T12:43:34.174Z,99021
2017-05-12T12:44:34.537Z,99022
2017-05-12T12:45:35.725Z,99019
2017-05-12T12:46:34.627Z,99028
2017-05-12T12:47:34.297Z,99029
2017-05-12T12:48:33.985Z,99026
2017-05-12T12:49:35.776Z,99027
2017-05-12T12:50:34.601Z,99026
2017-05-12T12:51:34.704Z,99032
2017-05-12T12:52:35.282Z,99031
2017-05-12T12:53:36.821Z,99025